createdAt,value
2022-08-10T00:01:11.769Z,1023.7
2022-08-10T00:04:23.919Z,1023.7
2022-08-10T00:07:36.056Z,1023.7
2022-08-10T00:10:48.206Z,1023.7
2022-08-10T00:14:00.358Z,1023.8
2022-08-10T00:17:12.509Z,1023.8
2022-08-10T00:20:24.664Z,1023.9
2022-08-10T00:23:36.819Z,1023.8
2022-08-10T00:26:48.974Z,1023.8
2022-08-10T00:30:00.122Z,1023.8
2022-08-10T00:33:12.274Z,1023.7
2022-08-10T00:36:24.427Z,1023.7
2022-08-10T00:39:36.574Z,1023.7
2022-08-10T00:42:48.722Z,1023.7
2022-08-10T00:46:00.879Z,1023.8
2022-08-10T00:49:13.035Z,1023.7
2022-08-10T00:52:24.205Z,1023.7
2022-08-10T00:55:35.370Z,1023.6
2022-08-10T00:58:46.546Z,1023.6
2022-08-10T01:01:57.718Z,1023.5
2022-08-10T01:05:09.861Z,1023.6
2022-08-10T01:08:22.013Z,1023.5
2022-08-10T01:11:34.161Z,1023.4
2022-08-10T01:14:46.310Z,1023.4
2022-08-10T01:17:58.465Z,1023.4
2022-08-10T01:21:10.611Z,1023.4
2022-08-10T01:24:22.760Z,1023.4
2022-08-10T01:27:34.908Z,1023.4
2022-08-10T01:30:47.064Z,1023.4
2022-08-10T01:33:59.218Z,1023.4
2022-08-10T01:37:11.371Z,1023.4
2022-08-10T01:40:23.509Z,1023.4
2022-08-10T01:43:34.669Z,1023.4
2022-08-10T01:46:46.828Z,1023.4
2022-08-10T01:49:58.989Z,1023.4
2022-08-10T01:53:11.132Z,1023.4
2022-08-10T01:56:23.272Z,1023.3
2022-08-10T01:59:35.428Z,1023.4
2022-08-10T02:02:47.576Z,1023.4
2022-08-10T02:05:58.766Z,1023.4
2022-08-10T02:09:09.919Z,1023.5
2022-08-10T02:12:22.068Z,1023.5
2022-08-10T02:15:34.214Z,1023.4
2022-08-10T02:18:46.370Z,1023.4
2022-08-10T02:21:58.515Z,1023.5
2022-08-10T02:25:10.679Z,1023.4
2022-08-10T02:28:22.825Z,1023.4
2022-08-10T02:31:34.969Z,1023.4
2022-08-10T02:34:47.123Z,1023.4
2022-08-10T02:37:59.269Z,1023.4
2022-08-10T02:41:11.429Z,1023.5
2022-08-10T02:44:23.570Z,1023.5
2022-08-10T02:47:35.732Z,1023.5
2022-08-10T02:50:46.893Z,1023.5
2022-08-10T02:53:59.047Z,1023.5
2022-08-10T02:57:11.256Z,1023.4
2022-08-10T03:00:23.388Z,1023.5
2022-08-10T03:03:35.552Z,1023.4
2022-08-10T03:06:47.704Z,1023.5
2022-08-10T03:09:59.846Z,1023.5
2022-08-10T03:13:11.025Z,1023.5
2022-08-10T03:16:22.196Z,1023.6
2022-08-10T03:19:33.365Z,1023.5
2022-08-10T03:22:44.537Z,1023.5
2022-08-10T03:25:55.708Z,1023.4
2022-08-10T03:29:06.887Z,1023.4
2022-08-10T03:32:19.035Z,1023.4
2022-08-10T03:35:31.178Z,1023.3
2022-08-10T03:38:43.338Z,1023.4
2022-08-10T03:41:55.484Z,1023.4
2022-08-10T03:45:07.638Z,1023.4
2022-08-10T03:48:19.774Z,1023.4
2022-08-10T03:51:31.926Z,1023.4
2022-08-10T03:54:44.084Z,1023.5
2022-08-10T03:57:56.235Z,1023.5
2022-08-10T04:01:08.389Z,1023.5
2022-08-10T04:04:20.530Z,1023.6
2022-08-10T04:07:32.690Z,1023.5
2022-08-10T04:10:43.847Z,1023.6
2022-08-10T04:13:56.007Z,1023.5
2022-08-10T04:17:08.156Z,1023.4
2022-08-10T04:20:20.000Z,1023.5
2022-08-10T04:23:32.456Z,1023.5
2022-08-10T04:26:44.596Z,1023.6
2022-08-10T04:29:56.749Z,1023.5
2022-08-10T04:33:07.928Z,1023.6
2022-08-10T04:36:19.100Z,1023.6
2022-08-10T04:39:31.247Z,1023.7
2022-08-10T04:42:42.421Z,1023.6
2022-08-10T04:45:53.591Z,1023.7
2022-08-10T04:49:05.734Z,1023.7
2022-08-10T04:52:17.894Z,1023.7
2022-08-10T04:55:30.039Z,1023.7
2022-08-10T04:58:42.186Z,1023.7
2022-08-10T05:01:54.338Z,1023.7
2022-08-10T05:05:06.497Z,1023.8
2022-08-10T05:08:18.635Z,1023.7
2022-08-10T05:11:30.781Z,1023.8
2022-08-10T05:14:42.949Z,1023.9
2022-08-10T05:17:55.087Z,1023.8
2022-08-10T05:21:07.240Z,1023.8
2022-08-10T05:24:19.392Z,1023.8
2022-08-10T05:27:30.553Z,1023.9
2022-08-10T05:30:42.712Z,1023.9
2022-08-10T05:33:54.855Z,1023.9
2022-08-10T05:37:07.015Z,1023.9
2022-08-10T05:40:19.160Z,1023.9
2022-08-10T05:43:31.310Z,1023.9
2022-08-10T05:46:43.454Z,1023.9
2022-08-10T05:49:54.637Z,1024
2022-08-10T05:53:05.790Z,1024
2022-08-10T05:56:16.972Z,1024
2022-08-10T05:59:28.132Z,1024
2022-08-10T06:02:40.299Z,1024
2022-08-10T06:05:52.439Z,1024
2022-08-10T06:09:04.594Z,1024
2022-08-10T06:12:16.734Z,1024
2022-08-10T06:15:28.887Z,1023.9
2022-08-10T06:18:41.047Z,1024
2022-08-10T06:21:53.195Z,1024.1
2022-08-10T06:25:05.357Z,1024
2022-08-10T06:28:17.502Z,1024
2022-08-10T06:31:29.638Z,1024
2022-08-10T06:34:41.801Z,1024.1
2022-08-10T06:37:53.941Z,1024
2022-08-10T06:41:05.111Z,1024
2022-08-10T06:44:17.259Z,1024
2022-08-10T06:47:29.422Z,1024
2022-08-10T06:50:41.561Z,1024
2022-08-10T06:53:53.724Z,1023.9
2022-08-10T06:57:05.856Z,1024
2022-08-10T07:00:18.026Z,1023.9
2022-08-10T07:03:29.183Z,1024
2022-08-10T07:06:40.370Z,1024
2022-08-10T07:09:51.529Z,1024
2022-08-10T07:13:02.703Z,1023.9
2022-08-10T07:16:13.877Z,1023.9
2022-08-10T07:19:25.048Z,1023.9
2022-08-10T07:22:36.227Z,1023.9
2022-08-10T07:25:48.000Z,1023.8
2022-08-10T07:29:00.525Z,1023.9
2022-08-10T07:32:12.673Z,1023.9
2022-08-10T07:35:24.815Z,1023.9
2022-08-10T07:38:36.979Z,1023.9
2022-08-10T07:41:49.113Z,1023.9
2022-08-10T07:45:01.267Z,1023.9
2022-08-10T07:48:13.416Z,1023.9
2022-08-10T07:51:25.575Z,1023.9
2022-08-10T07:54:37.719Z,1023.9
2022-08-10T07:57:49.871Z,1023.9
2022-08-10T08:01:02.034Z,1023.9
2022-08-10T08:04:13.194Z,1023.9
2022-08-10T08:07:25.339Z,1023.9
2022-08-10T08:10:37.496Z,1023.9
2022-08-10T08:13:49.649Z,1023.9
2022-08-10T08:17:01.809Z,1023.9
2022-08-10T08:20:13.957Z,1023.9
2022-08-10T08:23:25.135Z,1023.8
2022-08-10T08:26:36.300Z,1023.9
2022-08-10T08:29:48.448Z,1023.9
2022-08-10T08:33:00.598Z,1023.9
2022-08-10T08:36:12.750Z,1023.8
2022-08-10T08:39:24.900Z,1023.8
2022-08-10T08:42:37.063Z,1023.7
2022-08-10T08:45:49.197Z,1023.7
2022-08-10T08:49:01.360Z,1023.7
2022-08-10T08:52:13.509Z,1023.7
2022-08-10T08:55:25.656Z,1023.7
2022-08-10T08:58:37.805Z,1023.7
2022-08-10T09:01:49.961Z,1023.6
2022-08-10T09:05:02.108Z,1023.7
2022-08-10T09:08:13.269Z,1023.7
2022-08-10T09:11:25.423Z,1023.7
2022-08-10T09:14:37.579Z,1023.7
2022-08-10T09:17:49.733Z,1023.7
2022-08-10T09:21:01.874Z,1023.6
2022-08-10T09:24:14.042Z,1023.6
2022-08-10T09:27:26.189Z,1023.6
2022-08-10T09:30:37.357Z,1023.6
2022-08-10T09:33:48.533Z,1023.6
2022-08-10T09:36:59.716Z,1023.5
2022-08-10T09:40:10.871Z,1023.5
2022-08-10T09:43:22.045Z,1023.6
2022-08-10T09:46:33.227Z,1023.4
2022-08-10T09:49:45.372Z,1023.4
2022-08-10T09:52:57.522Z,1023.4
2022-08-10T09:56:09.684Z,1023.4
2022-08-10T09:59:21.849Z,1023.4
2022-08-10T10:02:33.993Z,1023.4
2022-08-10T10:05:46.144Z,1023.3
2022-08-10T10:08:58.293Z,1023.3
2022-08-10T10:12:10.439Z,1023.2
2022-08-10T10:15:22.592Z,1023.3
2022-08-10T10:18:34.751Z,1023.2
2022-08-10T10:21:46.914Z,1023.2
2022-08-10T10:24:59.057Z,1023.2
2022-08-10T10:28:10.223Z,1023.1
2022-08-10T10:31:22.383Z,1023.1
2022-08-10T10:34:34.522Z,1023
2022-08-10T10:37:46.674Z,1023
2022-08-10T10:40:58.839Z,1023
2022-08-10T10:44:10.991Z,1023
2022-08-10T10:47:23.131Z,1022.9
2022-08-10T10:50:34.317Z,1022.9
2022-08-10T10:53:45.481Z,1022.9
2022-08-10T10:56:57.640Z,1022.9
2022-08-10T11:00:08.816Z,1022.9
2022-08-10T11:03:19.986Z,1022.9
2022-08-10T11:06:32.139Z,1022.9
2022-08-10T11:09:44.289Z,1022.8
2022-08-10T11:12:56.430Z,1022.9
2022-08-10T11:16:08.595Z,1022.8
2022-08-10T11:19:20.745Z,1022.8
2022-08-10T11:22:32.878Z,1022.8
2022-08-10T11:25:45.031Z,1022.7
2022-08-10T11:28:57.198Z,1022.7
2022-08-10T11:32:09.354Z,1022.7
2022-08-10T11:35:21.486Z,1022.7
2022-08-10T11:38:33.654Z,1022.7
2022-08-10T11:41:45.795Z,1022.6
2022-08-10T11:44:56.972Z,1022.5
2022-08-10T11:48:09.124Z,1022.5
2022-08-10T11:51:21.263Z,1022.4
2022-08-10T11:54:33.426Z,1022.5
2022-08-10T11:57:45.564Z,1022.5
2022-08-10T12:00:57.714Z,1022.5
2022-08-10T12:04:09.877Z,1022.5
2022-08-10T12:07:21.055Z,1022.4
2022-08-10T12:10:32.217Z,1022.4
2022-08-10T12:13:43.392Z,1022.4
2022-08-10T12:16:54.561Z,1022.3
2022-08-10T12:20:06.710Z,1022.3
2022-08-10T12:23:18.872Z,1022.3
2022-08-10T12:26:31.014Z,1022.3
2022-08-10T12:29:43.181Z,1022.2
2022-08-10T12:32:55.332Z,1022.2
2022-08-10T12:36:07.484Z,1022.3
2022-08-10T12:39:19.618Z,1022.2
2022-08-10T12:42:31.782Z,1022.2
2022-08-10T12:45:43.923Z,1022.2
2022-08-10T12:48:56.091Z,1022.1
2022-08-10T12:52:08.244Z,1022.1
2022-08-10T12:55:20.392Z,1022.1
2022-08-10T12:58:31.552Z,1022
2022-08-10T13:01:43.697Z,1022
2022-08-10T13:08:08.021Z,1022
2022-08-10T13:11:20.159Z,1021.9
2022-08-10T13:14:32.308Z,1021.8
2022-08-10T13:17:44.461Z,1021.9
2022-08-10T13:20:56.628Z,1021.8
2022-08-10T13:24:07.801Z,1021.8
2022-08-10T13:27:18.969Z,1021.7
2022-08-10T13:30:31.115Z,1021.7
2022-08-10T13:33:43.270Z,1021.7
2022-08-10T13:36:55.424Z,1021.6
2022-08-10T13:40:07.567Z,1021.6
2022-08-10T13:43:19.716Z,1021.6
2022-08-10T13:46:31.872Z,1021.5
2022-08-10T13:49:44.035Z,1021.4
2022-08-10T13:52:56.181Z,1021.3
2022-08-10T13:56:08.336Z,1021.4
2022-08-10T13:59:20.478Z,1021.3
2022-08-10T14:02:32.636Z,1021.3
2022-08-10T14:05:44.783Z,1021.2
2022-08-10T14:08:55.955Z,1021.2
2022-08-10T14:12:08.103Z,1021.3
2022-08-10T14:15:20.248Z,1021.2
2022-08-10T14:18:32.407Z,1021.2
2022-08-10T14:21:44.557Z,1021.2
2022-08-10T14:24:56.710Z,1021.2
2022-08-10T14:28:08.858Z,1021.1
2022-08-10T14:31:20.038Z,1021.1
2022-08-10T14:34:31.218Z,1021.1
2022-08-10T14:37:42.389Z,1021.1
2022-08-10T14:40:53.554Z,1021
2022-08-10T14:44:04.735Z,1021
2022-08-10T14:47:15.903Z,1021
2022-08-10T14:50:28.057Z,1021
2022-08-10T14:53:40.205Z,1021
2022-08-10T14:56:52.357Z,1021
2022-08-10T15:00:04.522Z,1020.9
2022-08-10T15:03:16.656Z,1021
2022-08-10T15:06:28.823Z,1020.9
2022-08-10T15:09:40.968Z,1020.8
2022-08-10T15:12:53.125Z,1020.8
2022-08-10T15:16:05.269Z,1020.8
2022-08-10T15:22:29.578Z,1020.7
2022-08-10T15:25:41.736Z,1020.7
2022-08-10T15:28:52.907Z,1020.6
2022-08-10T15:32:05.058Z,1020.6
2022-08-10T15:35:17.210Z,1020.6
2022-08-10T15:38:29.345Z,1020.6
2022-08-10T15:41:41.516Z,1020.6
2022-08-10T15:44:53.654Z,1020.6
2022-08-10T15:48:05.802Z,1020.5
2022-08-10T15:51:17.972Z,1020.5
2022-08-10T15:54:29.137Z,1020.5
2022-08-10T15:57:40.312Z,1020.6
2022-08-10T16:00:51.496Z,1020.5
2022-08-10T16:04:02.650Z,1020.5
2022-08-10T16:07:14.806Z,1020.6
2022-08-10T16:10:26.951Z,1020.6
2022-08-10T16:13:39.111Z,1020.5
2022-08-10T16:16:51.000Z,1020.4
2022-08-10T16:20:03.420Z,1020.5
2022-08-10T16:23:15.577Z,1020.5
2022-08-10T16:26:27.728Z,1020.4
2022-08-10T16:29:39.871Z,1020.4
2022-08-10T16:32:52.016Z,1020.5
2022-08-10T16:36:04.185Z,1020.4
2022-08-10T16:39:16.332Z,1020.4
2022-08-10T16:42:28.477Z,1020.4
2022-08-10T16:45:39.646Z,1020.3
2022-08-10T16:48:51.807Z,1020.3
2022-08-10T16:52:03.950Z,1020.3
2022-08-10T16:55:16.101Z,1020.2
2022-08-10T16:58:28.249Z,1020.3
2022-08-10T17:01:40.413Z,1020.3
2022-08-10T17:04:52.562Z,1020.3
2022-08-10T17:08:03.741Z,1020.3
2022-08-10T17:11:14.916Z,1020.3
2022-08-10T17:14:26.083Z,1020.2
2022-08-10T17:17:37.258Z,1020.3
2022-08-10T17:20:49.398Z,1020.2
2022-08-10T17:24:01.549Z,1020.2
2022-08-10T17:27:13.713Z,1020.2
2022-08-10T17:30:25.849Z,1020.3
2022-08-10T17:33:37.999Z,1020.2
2022-08-10T17:36:50.145Z,1020.3
2022-08-10T17:40:02.300Z,1020.3
2022-08-10T17:43:14.459Z,1020.2
2022-08-10T17:46:26.610Z,1020.2
2022-08-10T17:49:38.761Z,1020.3
2022-08-10T17:52:50.917Z,1020.3
2022-08-10T17:56:03.062Z,1020.2
2022-08-10T17:59:14.227Z,1020.3
2022-08-10T18:02:26.376Z,1020.3
2022-08-10T18:05:37.537Z,1020.2
2022-08-10T18:08:49.705Z,1020.2
2022-08-10T18:12:01.837Z,1020.2
2022-08-10T18:15:13.992Z,1020.2
2022-08-10T18:18:26.153Z,1020.2
2022-08-10T18:21:37.327Z,1020.3
2022-08-10T18:24:48.496Z,1020.3
2022-08-10T18:27:59.676Z,1020.3
2022-08-10T18:31:10.847Z,1020.4
2022-08-10T18:34:22.991Z,1020.3
2022-08-10T18:37:35.144Z,1020.4
2022-08-10T18:40:47.281Z,1020.4
2022-08-10T18:43:59.430Z,1020.4
2022-08-10T18:47:11.593Z,1020.4
2022-08-10T18:50:23.734Z,1020.4
2022-08-10T18:53:35.890Z,1020.5
2022-08-10T18:56:48.047Z,1020.5
2022-08-10T19:00:00.180Z,1020.5
2022-08-10T19:03:12.328Z,1020.6
2022-08-10T19:06:24.486Z,1020.6
2022-08-10T19:09:36.647Z,1020.6
2022-08-10T19:12:47.801Z,1020.6
2022-08-10T19:15:59.944Z,1020.5
2022-08-10T19:19:12.094Z,1020.6
2022-08-10T19:22:24.245Z,1020.6
2022-08-10T19:25:36.408Z,1020.6
2022-08-10T19:28:48.549Z,1020.5
2022-08-10T19:32:00.710Z,1020.6
2022-08-10T19:35:11.883Z,1020.5
2022-08-10T19:38:23.041Z,1020.6
2022-08-10T19:41:35.205Z,1020.5
2022-08-10T19:44:47.355Z,1020.5
2022-08-10T19:47:59.506Z,1020.5
2022-08-10T19:51:11.651Z,1020.6
2022-08-10T19:54:23.798Z,1020.6
2022-08-10T19:57:35.965Z,1020.6
2022-08-10T20:00:48.113Z,1020.7
2022-08-10T20:04:00.248Z,1020.7
2022-08-10T20:07:12.406Z,1020.7
2022-08-10T20:10:24.566Z,1020.8
2022-08-10T20:13:36.703Z,1020.8
2022-08-10T20:16:48.852Z,1020.7
2022-08-10T20:20:00.018Z,1020.8
2022-08-10T20:23:12.185Z,1020.7
2022-08-10T20:26:24.331Z,1020.7
2022-08-10T20:29:36.476Z,1020.7
2022-08-10T20:32:48.619Z,1020.8
2022-08-10T20:36:00.789Z,1020.8
2022-08-10T20:39:12.931Z,1020.7
2022-08-10T20:42:24.100Z,1020.8
2022-08-10T20:45:35.284Z,1020.9
2022-08-10T20:48:47.434Z,1020.9
2022-08-10T20:51:59.578Z,1021
2022-08-10T20:55:11.715Z,1021
2022-08-10T20:58:23.876Z,1021
2022-08-10T21:01:36.016Z,1021
2022-08-10T21:04:48.180Z,1021
2022-08-10T21:08:00.330Z,1021
2022-08-10T21:11:12.468Z,1021
2022-08-10T21:14:24.632Z,1021
2022-08-10T21:17:36.770Z,1020.9
2022-08-10T21:20:48.931Z,1020.9
2022-08-10T21:24:01.078Z,1020.9
2022-08-10T21:27:12.247Z,1020.9
2022-08-10T21:30:24.400Z,1021
2022-08-10T21:36:48.692Z,1020.8
2022-08-10T21:40:00.844Z,1020.8
2022-08-10T21:43:13.005Z,1020.9
2022-08-10T21:46:25.146Z,1020.9
2022-08-10T21:49:37.294Z,1020.9
2022-08-10T21:52:48.482Z,1020.9
2022-08-10T21:55:59.632Z,1020.9
2022-08-10T21:59:10.821Z,1020.9
2022-08-10T22:02:21.985Z,1020.9
2022-08-10T22:05:34.139Z,1020.9
2022-08-10T22:08:46.278Z,1020.9
2022-08-10T22:11:58.422Z,1020.8
2022-08-10T22:15:10.574Z,1020.8
2022-08-10T22:18:22.723Z,1020.8
2022-08-10T22:21:34.876Z,1020.8
2022-08-10T22:24:47.025Z,1020.8
2022-08-10T22:27:59.184Z,1020.8
2022-08-10T22:31:11.329Z,1020.8
2022-08-10T22:34:23.485Z,1020.7
2022-08-10T22:37:35.641Z,1020.7
2022-08-10T22:40:47.773Z,1020.7
2022-08-10T22:43:58.957Z,1020.7
2022-08-10T22:47:11.102Z,1020.7
2022-08-10T22:50:23.293Z,1020.7
2022-08-10T22:53:35.459Z,1020.6
2022-08-10T22:56:47.599Z,1020.6
2022-08-10T22:59:59.742Z,1020.6
2022-08-10T23:03:11.898Z,1020.6
2022-08-10T23:06:23.076Z,1020.7
2022-08-10T23:09:34.247Z,1020.6
2022-08-10T23:12:46.388Z,1020.6
2022-08-10T23:15:58.545Z,1020.6
2022-08-10T23:19:10.704Z,1020.6
2022-08-10T23:22:22.836Z,1020.6
2022-08-10T23:25:34.997Z,1020.7
2022-08-10T23:28:47.137Z,1020.6
2022-08-10T23:31:59.305Z,1020.6
2022-08-10T23:35:11.454Z,1020.6
2022-08-10T23:38:23.000Z,1020.5
2022-08-10T23:41:35.742Z,1020.6
2022-08-10T23:44:47.904Z,1020.5
2022-08-10T23:48:00.043Z,1020.5
2022-08-10T23:51:11.221Z,1020.5
2022-08-10T23:54:23.367Z,1020.5
2022-08-10T23:57:35.520Z,1020.4
